Time;durP1;ratioP1;P1;durP2;ratioP2;P2;SDS_P1;SDS_P2;PMS_P1;PMS_P2;Temp;Humidity;BMP_temperature;BMP_pressure;BME280_temperature;BME280_humidity;BME280_pressure;Samples;Min_cycle;Max_cycle;Signal;HPM_P1;HPM_P2
2021/01/29 00:01:26;;;;;;;11.97;9.17;;;7.00;99.90;;;;;;4995996;28;20176;-71
2021/01/29 00:03:52;;;;;;;12.73;9.27;;;6.90;99.90;;;;;;4996150;28;20208;-71
2021/01/29 00:06:17;;;;;;;13.00;9.83;;;6.90;99.90;;;;;;4996158;28;21001;-71
2021/01/29 00:08:43;;;;;;;12.73;9.83;;;6.90;99.90;;;;;;4997682;28;20172;-71
2021/01/29 00:11:08;;;;;;;13.53;9.73;;;6.90;99.90;;;;;;4996280;28;20834;-71
2021/01/29 00:13:34;;;;;;;14.17;10.00;;;6.80;99.90;;;;;;4995491;28;20200;-71
2021/01/29 00:16:00;;;;;;;14.50;9.90;;;6.80;99.90;;;;;;4995769;28;20173;-71
2021/01/29 00:18:25;;;;;;;13.33;10.30;;;6.90;99.90;;;;;;4996389;28;20176;-71
2021/01/29 00:20:51;;;;;;;14.30;9.93;;;6.90;99.90;;;;;;4995392;28;20215;-71
2021/01/29 00:23:18;;;;;;;17.33;11.00;;;6.90;99.90;;;;;;4995817;28;20597;-71
2021/01/29 00:25:52;;;;;;;13.80;10.20;;;7.00;99.90;;;;;;4995610;28;20503;-71
2021/01/29 00:28:19;;;;;;;14.17;10.50;;;7.00;99.90;;;;;;4995667;28;20506;-71
2021/01/29 00:30:45;;;;;;;15.53;10.13;;;7.00;99.90;;;;;;4995086;28;20419;-71
2021/01/29 00:33:14;;;;;;;17.50;12.07;;;7.00;99.90;;;;;;4995259;28;20995;-71
2021/01/29 00:35:40;;;;;;;19.67;11.47;;;7.00;99.90;;;;;;4995467;28;20753;-71
2021/01/29 00:38:07;;;;;;;18.50;11.47;;;7.10;99.90;;;;;;4995174;28;20431;-70
2021/01/29 00:40:33;;;;;;;21.63;10.70;;;7.10;99.90;;;;;;4995123;28;20175;-71
2021/01/29 00:42:59;;;;;;;16.93;11.20;;;7.20;99.90;;;;;;4994665;28;20904;-70
2021/01/29 00:45:28;;;;;;;17.77;11.67;;;7.20;99.90;;;;;;4994803;28;20416;-70
2021/01/29 00:47:54;;;;;;;19.63;12.70;;;7.20;99.90;;;;;;4995117;28;20663;-71
2021/01/29 00:50:19;;;;;;;33.63;15.73;;;7.20;99.90;;;;;;4995297;28;20479;-71
2021/01/29 00:52:45;;;;;;;25.80;15.00;;;7.30;99.90;;;;;;4994697;28;20436;-71
2021/01/29 00:55:12;;;;;;;27.80;14.33;;;7.40;99.90;;;;;;4995252;28;20241;-70
2021/01/29 00:57:37;;;;;;;23.10;14.97;;;7.50;99.90;;;;;;4995106;28;20235;-71
2021/01/29 01:00:08;;;;;;;22.60;14.80;;;7.50;99.90;;;;;;4994923;28;20411;-70
2021/01/29 01:02:34;;;;;;;24.80;15.07;;;7.60;99.90;;;;;;4995036;28;20205;-71
2021/01/29 01:04:59;;;;;;;22.70;14.73;;;7.70;99.90;;;;;;4995174;28;20435;-71
2021/01/29 01:07:25;;;;;;;31.10;15.03;;;7.70;99.90;;;;;;4994462;28;20280;-71
2021/01/29 01:13:13;;;;;;;24.57;13.90;;;7.70;99.90;;;;;;4993680;28;20214;-70
2021/01/29 01:15:38;;;;;;;19.47;13.30;;;7.70;99.90;;;;;;4994623;28;20877;-71
2021/01/29 01:18:06;;;;;;;27.30;14.33;;;7.70;99.90;;;;;;4994020;28;20698;-71
2021/01/29 01:20:32;;;;;;;29.73;15.33;;;7.80;99.90;;;;;;4994545;28;20209;-71
2021/01/29 01:22:58;;;;;;;29.50;15.53;;;7.80;99.90;;;;;;4994526;28;20482;-71
2021/01/29 01:25:24;;;;;;;20.00;14.00;;;7.90;99.90;;;;;;4994930;28;20192;-71
2021/01/29 01:27:51;;;;;;;22.60;14.63;;;7.90;99.90;;;;;;4994523;28;20451;-71
2021/01/29 01:30:20;;;;;;;22.47;14.63;;;7.90;99.90;;;;;;4993743;28;20447;-71
2021/01/29 01:32:46;;;;;;;23.03;14.73;;;8.00;99.90;;;;;;4993915;28;20449;-71
2021/01/29 01:35:17;;;;;;;22.07;14.30;;;8.00;99.90;;;;;;4994688;28;20760;-71
2021/01/29 01:37:42;;;;;;;20.30;13.17;;;8.00;99.90;;;;;;4994758;28;20869;-71
2021/01/29 01:40:09;;;;;;;21.20;14.20;;;8.10;99.90;;;;;;4993824;28;20482;-71
2021/01/29 01:42:35;;;;;;;18.10;12.97;;;8.10;99.90;;;;;;4993822;28;20213;-71
2021/01/29 01:45:01;;;;;;;22.43;13.57;;;8.10;99.90;;;;;;4992835;28;20417;-70
2021/01/29 01:47:40;;;;;;;21.90;13.03;;;8.20;99.90;;;;;;4994131;28;20688;-70
2021/01/29 01:50:34;;;;;;;19.87;11.77;;;8.20;99.90;;;;;;4994915;28;20506;-71
2021/01/29 01:53:03;;;;;;;15.87;12.13;;;8.20;99.90;;;;;;4992558;28;20913;-71
2021/01/29 01:55:37;;;;;;;17.90;12.60;;;8.20;99.90;;;;;;4993506;28;20887;-71
2021/01/29 01:58:05;;;;;;;19.97;12.90;;;8.20;99.90;;;;;;4994051;28;20522;-71
2021/01/29 02:00:31;;;;;;;25.13;13.10;;;8.30;99.90;;;;;;4994247;28;20399;-71
2021/01/29 02:03:04;;;;;;;18.50;11.33;;;8.30;99.90;;;;;;4993693;28;20932;-72
2021/01/29 02:05:39;;;;;;;20.30;13.13;;;8.30;99.90;;;;;;4993907;28;20420;-71
2021/01/29 02:08:10;;;;;;;19.20;11.67;;;8.30;99.90;;;;;;4993490;28;20505;-71
2021/01/29 02:10:36;;;;;;;18.17;11.97;;;8.30;99.90;;;;;;4994103;28;20505;-72
2021/01/29 02:13:05;;;;;;;21.87;12.80;;;8.40;99.90;;;;;;4993820;28;20423;-71
2021/01/29 02:15:33;;;;;;;16.30;11.30;;;8.40;99.90;;;;;;4993635;28;20431;-71
2021/01/29 02:18:25;;;;;;;16.23;11.90;;;8.40;99.90;;;;;;4993824;28;20423;-71
2021/01/29 02:21:19;;;;;;;18.90;11.40;;;8.40;99.90;;;;;;4993760;28;20419;-71
2021/01/29 02:23:54;;;;;;;22.77;13.23;;;8.40;99.90;;;;;;4993663;28;20772;-71
2021/01/29 02:26:53;;;;;;;19.67;13.50;;;8.40;99.90;;;;;;4994243;28;20466;-71
2021/01/29 02:29:43;;;;;;;18.50;13.63;;;8.40;99.90;;;;;;4993905;28;20420;-71
2021/01/29 02:32:52;;;;;;;17.60;12.40;;;8.40;99.90;;;;;;4996350;28;20417;-71
2021/01/29 02:35:48;;;;;;;19.87;13.47;;;8.50;99.90;;;;;;4999002;28;20416;-71
2021/01/29 02:38:52;;;;;;;18.33;11.83;;;8.50;99.90;;;;;;4994584;28;20399;-71
2021/01/29 02:41:41;;;;;;;18.77;11.87;;;8.50;99.90;;;;;;4975659;28;20721;-71
2021/01/29 02:44:21;;;;;;;16.70;10.10;;;8.50;99.90;;;;;;4975769;28;20422;-71
2021/01/29 02:47:00;;;;;;;10.23;7.40;;;8.40;99.90;;;;;;4974084;28;20495;-71
2021/01/29 02:49:56;;;;;;;12.57;8.53;;;8.50;99.90;;;;;;4978882;28;20931;-71
2021/01/29 02:52:31;;;;;;;13.50;7.03;;;8.40;99.90;;;;;;4993461;28;20476;-71
2021/01/29 02:55:22;;;;;;;8.80;6.40;;;8.40;99.90;;;;;;4993897;28;20507;-71
2021/01/29 02:58:00;;;;;;;7.80;5.17;;;8.40;99.90;;;;;;4993220;28;20419;-71
2021/01/29 03:00:50;;;;;;;4.93;4.50;;;8.40;99.90;;;;;;4993666;28;20507;-71
2021/01/29 03:03:24;;;;;;;5.80;4.70;;;8.50;99.90;;;;;;4993461;28;22035;-71
2021/01/29 03:06:01;;;;;;;5.00;4.50;;;8.40;99.90;;;;;;4995123;28;20782;-72
2021/01/29 03:08:52;;;;;;;3.53;3.10;;;8.50;99.90;;;;;;5004563;28;20424;-71
2021/01/29 03:11:39;;;;;;;2.97;2.73;;;8.50;99.90;;;;;;4997111;28;20424;-71
2021/01/29 03:14:10;;;;;;;3.57;3.27;;;8.50;99.90;;;;;;4997529;28;20491;-71
2021/01/29 03:16:46;;;;;;;4.00;2.70;;;8.50;99.90;;;;;;4997151;28;20427;-72
2021/01/29 03:19:16;;;;;;;2.60;2.40;;;8.50;99.90;;;;;;4997066;28;20441;-71
2021/01/29 03:21:47;;;;;;;4.07;2.80;;;8.40;99.90;;;;;;4997154;28;20405;-71
2021/01/29 03:24:24;;;;;;;2.93;2.50;;;8.40;99.90;;;;;;4997768;28;20405;-71
2021/01/29 03:26:58;;;;;;;2.27;2.17;;;8.50;99.90;;;;;;4997333;28;20467;-71
2021/01/29 03:29:27;;;;;;;2.47;2.27;;;8.50;99.90;;;;;;4996603;28;20400;-71
2021/01/29 03:31:58;;;;;;;2.17;1.97;;;8.50;99.90;;;;;;4995353;28;20771;-71
2021/01/29 03:34:30;;;;;;;1.67;1.57;;;8.50;99.90;;;;;;4997232;28;20889;-72
2021/01/29 03:37:03;;;;;;;2.03;1.70;;;8.50;99.90;;;;;;4996860;28;20422;-72
2021/01/29 03:39:37;;;;;;;1.63;1.40;;;8.50;99.90;;;;;;4997008;28;20410;-72
2021/01/29 03:42:30;;;;;;;1.70;1.60;;;8.50;99.90;;;;;;4996594;28;20490;-71
2021/01/29 03:45:23;;;;;;;1.40;1.30;;;8.60;99.90;;;;;;4995507;28;20423;-71
2021/01/29 03:47:58;;;;;;;2.70;1.70;;;8.50;99.90;;;;;;4995177;28;20511;-71
2021/01/29 03:50:44;;;;;;;1.60;1.50;;;8.50;99.90;;;;;;4996483;28;20496;-71
2021/01/29 03:53:29;;;;;;;1.30;1.20;;;8.50;99.90;;;;;;4976758;28;20969;-71
2021/01/29 03:56:13;;;;;;;1.47;1.23;;;8.50;99.90;;;;;;4977016;28;20858;-71
2021/01/29 03:58:57;;;;;;;1.63;1.53;;;8.50;99.90;;;;;;4977218;28;20452;-71
2021/01/29 04:01:49;;;;;;;1.87;1.30;;;8.50;99.90;;;;;;4978428;28;20451;-71
2021/01/29 04:04:30;;;;;;;1.73;1.63;;;8.50;99.90;;;;;;4996144;28;20438;-71
2021/01/29 04:07:06;;;;;;;1.73;1.63;;;8.60;99.90;;;;;;4996091;28;20546;-71
2021/01/29 04:09:43;;;;;;;2.13;1.73;;;8.60;99.90;;;;;;4995316;28;20835;-71
2021/01/29 04:12:12;;;;;;;1.67;1.57;;;8.70;99.90;;;;;;4995228;28;20476;-71
2021/01/29 04:15:13;;;;;;;2.13;1.93;;;8.70;99.90;;;;;;4996124;28;20419;-71
2021/01/29 04:17:57;;;;;;;2.00;1.87;;;8.70;99.90;;;;;;4995149;28;20522;-71
2021/01/29 04:20:31;;;;;;;1.70;1.60;;;8.80;99.90;;;;;;4996318;28;20732;-70
2021/01/29 04:23:00;;;;;;;1.83;1.73;;;8.80;99.90;;;;;;4995510;28;20447;-70
2021/01/29 04:25:31;;;;;;;1.70;1.60;;;8.80;99.90;;;;;;4995149;28;20581;-70
2021/01/29 04:28:13;;;;;;;2.83;1.90;;;8.80;99.90;;;;;;4984407;28;20887;-70
2021/01/29 04:30:44;;;;;;;1.93;1.83;;;8.80;99.90;;;;;;4984361;28;20428;-70
2021/01/29 04:33:15;;;;;;;2.20;2.03;;;8.80;99.90;;;;;;4989050;28;20451;-70
2021/01/29 04:35:41;;;;;;;1.70;1.60;;;8.90;99.90;;;;;;4984670;28;20486;-70
2021/01/29 04:38:22;;;;;;;1.93;1.83;;;8.90;99.90;;;;;;4987176;28;20445;-71
2021/01/29 04:41:35;;;;;;;2.00;1.90;;;8.90;99.90;;;;;;4983867;28;21518;-71
2021/01/29 04:44:30;;;;;;;2.30;2.10;;;8.90;99.90;;;;;;4988564;28;20478;-72
2021/01/29 04:47:02;;;;;;;2.47;2.30;;;8.90;99.90;;;;;;4994507;28;20459;-71
2021/01/29 04:49:53;;;;;;;2.20;2.00;;;9.00;99.90;;;;;;4994159;28;20499;-71
2021/01/29 04:52:28;;;;;;;3.20;3.00;;;8.90;99.90;;;;;;4988897;28;20467;-71
2021/01/29 04:55:33;;;;;;;2.70;2.50;;;9.00;99.90;;;;;;4992911;28;20511;-71
2021/01/29 04:58:26;;;;;;;3.47;3.13;;;9.00;99.90;;;;;;4994216;28;20446;-71
2021/01/29 05:01:34;;;;;;;2.90;2.70;;;8.90;99.90;;;;;;4994393;28;20774;-71
2021/01/29 05:04:38;;;;;;;2.83;2.63;;;8.90;99.90;;;;;;4994552;28;20807;-71
2021/01/29 05:07:43;;;;;;;2.43;2.23;;;8.90;99.90;;;;;;4993198;28;20467;-71
2021/01/29 05:10:34;;;;;;;3.10;2.90;;;9.00;99.90;;;;;;4994955;28;20510;-71
2021/01/29 05:13:35;;;;;;;3.30;3.00;;;9.00;99.90;;;;;;4995186;28;20437;-71
2021/01/29 05:16:03;;;;;;;4.20;3.70;;;8.90;99.90;;;;;;4992252;28;20427;-71
2021/01/29 05:19:08;;;;;;;3.63;3.33;;;8.80;99.90;;;;;;4996283;28;20490;-71
2021/01/29 05:21:55;;;;;;;4.67;3.90;;;8.70;99.90;;;;;;4995501;28;20405;-71
2021/01/29 05:24:26;;;;;;;3.70;3.33;;;8.70;99.90;;;;;;4995418;28;20430;-71
2021/01/29 05:27:25;;;;;;;2.20;2.10;;;8.80;99.90;;;;;;4995068;28;20987;-71
2021/01/29 05:30:34;;;;;;;3.00;2.80;;;8.70;99.90;;;;;;4994505;28;20496;-71
2021/01/29 05:33:25;;;;;;;2.43;2.27;;;8.70;99.90;;;;;;4994456;28;20462;-71
2021/01/29 05:36:21;;;;;;;2.57;2.37;;;8.80;99.90;;;;;;4995123;28;20434;-71
2021/01/29 05:38:50;;;;;;;2.70;1.83;;;8.80;99.90;;;;;;4993465;28;20436;-71
2021/01/29 05:41:44;;;;;;;1.53;1.43;;;8.80;99.90;;;;;;4994345;28;20768;-71
2021/01/29 05:44:39;;;;;;;1.70;1.60;;;8.80;99.90;;;;;;4992936;28;20432;-71
2021/01/29 05:47:11;;;;;;;1.67;1.57;;;8.80;99.90;;;;;;4978122;28;20884;-71
2021/01/29 05:50:11;;;;;;;1.40;1.30;;;8.80;99.90;;;;;;4994238;28;20412;-71
2021/01/29 05:53:05;;;;;;;1.90;1.50;;;8.80;99.90;;;;;;4993990;28;20781;-71
2021/01/29 05:55:37;;;;;;;2.17;1.73;;;8.90;99.90;;;;;;4992711;28;20771;-71
2021/01/29 05:58:15;;;;;;;2.00;1.90;;;8.90;99.90;;;;;;4994167;28;20442;-71
2021/01/29 06:00:49;;;;;;;1.50;1.40;;;8.90;99.90;;;;;;4994010;28;20827;-72
2021/01/29 06:03:44;;;;;;;1.80;1.70;;;8.90;99.90;;;;;;4993930;28;20869;-71
2021/01/29 06:06:30;;;;;;;2.60;2.40;;;8.90;99.90;;;;;;4994033;28;20760;-71
2021/01/29 06:09:17;;;;;;;1.57;1.47;;;8.90;99.90;;;;;;4994266;28;20429;-71
2021/01/29 06:12:07;;;;;;;2.13;1.50;;;8.90;99.90;;;;;;4992528;28;20735;-72
2021/01/29 06:14:45;;;;;;;1.90;1.80;;;9.00;99.90;;;;;;4992596;28;20431;-72
2021/01/29 06:17:23;;;;;;;3.87;2.60;;;9.00;99.90;;;;;;4994038;28;20475;-71
2021/01/29 06:20:16;;;;;;;3.90;3.50;;;9.00;99.90;;;;;;4993698;28;20427;-71
2021/01/29 06:23:00;;;;;;;3.47;3.17;;;9.00;99.90;;;;;;4992300;28;20530;-71
2021/01/29 06:26:01;;;;;;;3.50;3.30;;;9.00;99.90;;;;;;4993294;28;20428;-71
2021/01/29 06:28:44;;;;;;;4.43;4.13;;;9.10;99.90;;;;;;4993705;28;20866;-71
2021/01/29 06:31:15;;;;;;;3.17;2.97;;;9.00;99.90;;;;;;4994093;28;20761;-71
2021/01/29 06:34:23;;;;;;;3.27;2.97;;;9.00;99.90;;;;;;4994510;28;20428;-71
2021/01/29 06:37:01;;;;;;;2.40;2.20;;;9.00;99.90;;;;;;4994329;28;20434;-71
2021/01/29 06:39:35;;;;;;;3.57;2.10;;;9.00;99.90;;;;;;5004877;28;20406;-71
2021/01/29 06:42:12;;;;;;;1.97;1.87;;;8.90;99.90;;;;;;5018441;28;20411;-71
2021/01/29 06:45:11;;;;;;;2.40;2.17;;;8.90;99.90;;;;;;5013928;28;20412;-71
2021/01/29 06:47:54;;;;;;;2.73;2.53;;;8.90;99.90;;;;;;4998004;28;20992;-72
2021/01/29 06:50:55;;;;;;;3.00;2.80;;;8.90;99.90;;;;;;4997858;28;20404;-71
2021/01/29 06:53:39;;;;;;;3.70;3.40;;;8.90;99.90;;;;;;4978226;28;20519;-71
2021/01/29 06:56:26;;;;;;;3.50;3.20;;;8.90;99.90;;;;;;4976784;28;20495;-71
2021/01/29 06:59:20;;;;;;;4.53;3.93;;;8.90;99.90;;;;;;4977918;28;20392;-71
2021/01/29 07:02:01;;;;;;;5.60;4.03;;;8.90;99.90;;;;;;4978091;28;20431;-71
2021/01/29 07:04:58;;;;;;;5.13;4.63;;;8.90;99.90;;;;;;4976537;28;20431;-71
2021/01/29 07:07:46;;;;;;;3.87;3.57;;;8.80;99.90;;;;;;4977940;28;20456;-71
2021/01/29 07:10:29;;;;;;;3.53;3.23;;;8.80;99.90;;;;;;4972032;28;20479;-71
2021/01/29 07:13:15;;;;;;;3.73;3.23;;;8.80;99.90;;;;;;4977485;28;20421;-71
2021/01/29 07:16:19;;;;;;;4.60;4.20;;;8.80;99.90;;;;;;4977411;28;20416;-70
2021/01/29 07:18:56;;;;;;;4.70;4.30;;;8.80;99.90;;;;;;4976847;28;20402;-71
2021/01/29 07:21:40;;;;;;;4.87;4.37;;;8.90;99.90;;;;;;4976958;28;20455;-71
2021/01/29 07:24:14;;;;;;;6.00;4.77;;;8.80;99.90;;;;;;4977809;28;20976;-71
2021/01/29 07:26:58;;;;;;;5.30;4.80;;;8.80;99.90;;;;;;4977221;28;20832;-70
2021/01/29 07:29:38;;;;;;;5.60;5.10;;;8.80;99.90;;;;;;4976623;28;20772;-70
2021/01/29 07:32:08;;;;;;;8.10;5.73;;;8.80;99.90;;;;;;4977361;28;20439;-71
2021/01/29 07:34:56;;;;;;;7.10;5.80;;;8.80;99.90;;;;;;4977745;28;20410;-71
2021/01/29 07:37:34;;;;;;;6.93;5.60;;;8.70;99.90;;;;;;4976023;28;20766;-71
2021/01/29 07:40:22;;;;;;;7.10;6.37;;;8.70;99.90;;;;;;4977738;28;20782;-71
2021/01/29 07:43:21;;;;;;;6.67;5.97;;;8.80;99.90;;;;;;4976870;28;20438;-71
2021/01/29 07:46:27;;;;;;;7.00;6.30;;;8.80;99.90;;;;;;4977137;28;20409;-71
2021/01/29 07:49:18;;;;;;;7.70;6.63;;;8.80;99.90;;;;;;4977845;28;20412;-70
2021/01/29 07:51:47;;;;;;;8.30;7.50;;;8.80;99.90;;;;;;4983937;28;20423;-70
2021/01/29 07:54:40;;;;;;;8.53;7.60;;;8.80;99.90;;;;;;4996858;28;20409;-70
2021/01/29 07:57:08;;;;;;;7.50;6.80;;;8.80;99.90;;;;;;4995062;28;20423;-72
2021/01/29 08:00:07;;;;;;;9.33;8.23;;;8.80;99.90;;;;;;4996714;28;20733;-72
2021/01/29 08:02:55;;;;;;;8.83;7.93;;;8.80;99.90;;;;;;4996347;28;20428;-70
2021/01/29 08:05:27;;;;;;;8.60;7.50;;;8.80;99.90;;;;;;4996042;28;20417;-71
2021/01/29 08:07:59;;;;;;;11.17;8.90;;;8.90;99.90;;;;;;4995932;28;20826;-71
2021/01/29 08:10:45;;;;;;;9.60;7.80;;;8.90;99.90;;;;;;4996137;28;20458;-71
2021/01/29 08:13:31;;;;;;;8.20;7.37;;;8.90;99.90;;;;;;4995959;28;20994;-71
2021/01/29 08:16:09;;;;;;;10.90;7.60;;;8.90;99.90;;;;;;4996063;28;20698;-71
2021/01/29 08:19:03;;;;;;;9.70;7.90;;;8.90;99.90;;;;;;4996283;28;20447;-71
2021/01/29 08:21:42;;;;;;;8.30;6.77;;;8.90;99.90;;;;;;4995728;28;20467;-71
2021/01/29 08:24:42;;;;;;;8.33;7.50;;;8.90;99.90;;;;;;4996488;28;20542;-72
2021/01/29 08:27:41;;;;;;;8.23;6.97;;;8.80;99.90;;;;;;4996097;28;20463;-72
2021/01/29 08:30:25;;;;;;;8.73;6.90;;;8.90;99.90;;;;;;4994317;28;20968;-72
2021/01/29 08:33:16;;;;;;;8.93;6.60;;;8.80;99.90;;;;;;4995986;28;20482;-71
2021/01/29 08:36:10;;;;;;;13.03;7.13;;;8.80;99.90;;;;;;4996040;28;20443;-71
2021/01/29 08:38:50;;;;;;;9.57;7.10;;;8.80;99.90;;;;;;4996447;28;20901;-71
2021/01/29 08:41:45;;;;;;;9.13;6.50;;;8.90;99.90;;;;;;4995625;28;20422;-71
2021/01/29 08:44:34;;;;;;;12.03;6.00;;;8.90;99.90;;;;;;4995522;28;20447;-71
2021/01/29 08:47:29;;;;;;;7.37;6.00;;;8.90;99.90;;;;;;4994640;28;20530;-71
2021/01/29 08:50:10;;;;;;;9.43;6.20;;;8.90;99.90;;;;;;4996061;28;20741;-71
2021/01/29 08:52:57;;;;;;;11.67;6.80;;;8.90;99.90;;;;;;4993623;28;20501;-71
2021/01/29 08:55:32;;;;;;;10.90;6.40;;;8.90;99.90;;;;;;4994007;28;20408;-71
2021/01/29 08:58:15;;;;;;;15.50;7.17;;;9.00;99.90;;;;;;4995849;28;20414;-71
2021/01/29 09:00:41;;;;;;;15.67;7.83;;;9.00;99.90;;;;;;4995180;28;20465;-71
2021/01/29 09:03:19;;;;;;;16.63;8.90;;;9.00;99.90;;;;;;4994528;28;20514;-71
2021/01/29 09:05:48;;;;;;;13.60;7.77;;;9.00;99.90;;;;;;4995562;28;20760;-71
2021/01/29 09:08:22;;;;;;;18.50;7.17;;;9.00;99.90;;;;;;4995081;28;20492;-71
2021/01/29 09:11:23;;;;;;;13.13;7.73;;;9.00;99.90;;;;;;4994795;28;20422;-71
2021/01/29 09:13:58;;;;;;;14.37;7.03;;;9.00;99.90;;;;;;4992233;28;20939;-71
2021/01/29 09:16:30;;;;;;;17.43;7.83;;;9.00;99.90;;;;;;4994936;28;20430;-71
2021/01/29 09:19:08;;;;;;;15.03;7.30;;;9.00;99.90;;;;;;4994734;28;20446;-71
2021/01/29 09:21:44;;;;;;;12.63;7.90;;;9.00;99.90;;;;;;4995121;28;20490;-72
2021/01/29 09:24:19;;;;;;;11.67;7.10;;;8.90;99.90;;;;;;4994846;28;20431;-72
2021/01/29 09:27:38;;;;;;;14.70;6.77;;;8.90;99.90;;;;;;4994572;28;20547;-71
2021/01/29 09:30:19;;;;;;;18.10;7.37;;;8.90;99.90;;;;;;4973598;28;20890;-71
2021/01/29 09:32:50;;;;;;;18.40;7.37;;;8.90;99.90;;;;;;4972858;28;20433;-73
2021/01/29 09:35:28;;;;;;;13.70;6.87;;;8.90;99.90;;;;;;4973197;28;20409;-71
2021/01/29 09:37:56;;;;;;;19.10;7.83;;;8.90;99.90;;;;;;4973298;28;20413;-71
2021/01/29 09:40:29;;;;;;;16.00;8.33;;;8.90;99.90;;;;;;4973558;28;20507;-72
2021/01/29 09:42:59;;;;;;;21.07;8.10;;;8.90;99.90;;;;;;4973318;28;20570;-71
2021/01/29 09:45:27;;;;;;;21.87;8.23;;;8.80;99.90;;;;;;4972855;28;20503;-72
2021/01/29 09:48:00;;;;;;;17.80;7.97;;;8.80;99.90;;;;;;4973420;28;20464;-72
2021/01/29 09:50:28;;;;;;;20.40;7.70;;;8.80;99.90;;;;;;4972552;28;20411;-72
2021/01/29 09:53:05;;;;;;;11.50;7.13;;;8.80;99.90;;;;;;4972723;28;20436;-71
2021/01/29 09:55:51;;;;;;;17.63;7.77;;;8.80;99.90;;;;;;4973311;28;20454;-71
2021/01/29 09:58:43;;;;;;;16.77;6.50;;;8.80;99.90;;;;;;4972767;28;20412;-71
2021/01/29 10:01:16;;;;;;;15.03;6.90;;;8.80;99.90;;;;;;4972966;28;20409;-72
2021/01/29 10:04:08;;;;;;;18.33;8.27;;;8.80;99.90;;;;;;4973222;28;20556;-72
2021/01/29 10:07:05;;;;;;;17.03;7.17;;;8.80;99.90;;;;;;4981882;28;20418;-72
2021/01/29 10:09:37;;;;;;;18.23;7.60;;;8.80;99.90;;;;;;4974345;29;20938;-72
2021/01/29 10:12:24;;;;;;;18.70;7.03;;;8.90;99.90;;;;;;4973928;28;20409;-72
2021/01/29 10:14:59;;;;;;;19.10;7.53;;;8.90;99.90;;;;;;4973625;28;20456;-71
2021/01/29 10:17:34;;;;;;;18.23;6.70;;;8.90;99.90;;;;;;4977630;29;20412;-71
2021/01/29 10:20:08;;;;;;;19.53;7.23;;;9.00;99.90;;;;;;4972804;29;20437;-72
2021/01/29 10:22:56;;;;;;;16.77;7.23;;;9.00;99.90;;;;;;4968415;28;20437;-72
2021/01/29 10:25:31;;;;;;;15.63;6.40;;;9.00;99.90;;;;;;4957136;29;20442;-71
2021/01/29 10:28:05;;;;;;;13.13;5.73;;;9.10;99.90;;;;;;4974222;29;20453;-72
2021/01/29 10:30:57;;;;;;;24.50;8.73;;;9.00;99.90;;;;;;4971858;29;20408;-71
2021/01/29 10:33:32;;;;;;;19.83;7.13;;;9.10;99.90;;;;;;4966929;28;20435;-72
2021/01/29 10:36:10;;;;;;;14.90;6.37;;;9.10;99.90;;;;;;4955879;29;20800;-72
2021/01/29 10:38:58;;;;;;;23.77;6.50;;;9.10;99.90;;;;;;4956592;29;20773;-73
2021/01/29 10:41:54;;;;;;;19.33;6.13;;;9.10;99.90;;;;;;4955618;29;20449;-71
2021/01/29 10:44:24;;;;;;;15.33;5.60;;;9.10;99.90;;;;;;4955908;29;21200;-72
2021/01/29 10:46:52;;;;;;;22.03;6.57;;;9.10;99.90;;;;;;4991829;28;20505;-72
2021/01/29 10:49:38;;;;;;;14.17;6.70;;;9.10;99.90;;;;;;4994261;28;20436;-71
2021/01/29 10:52:37;;;;;;;16.43;6.10;;;9.10;99.90;;;;;;4993067;28;20439;-71
2021/01/29 10:55:17;;;;;;;20.80;6.20;;;9.20;99.90;;;;;;4976865;28;20445;-71
2021/01/29 10:58:06;;;;;;;16.73;7.03;;;9.20;99.90;;;;;;4985363;28;20415;-71
2021/01/29 11:00:33;;;;;;;23.73;7.97;;;9.20;99.90;;;;;;4991592;28;20555;-71
2021/01/29 11:03:17;;;;;;;17.27;5.17;;;9.20;99.90;;;;;;4992279;28;20449;-72
2021/01/29 11:05:45;;;;;;;13.50;6.03;;;9.30;99.90;;;;;;4993062;28;20415;-71
2021/01/29 11:08:28;;;;;;;22.73;5.70;;;9.30;99.90;;;;;;4991866;28;20462;-71
2021/01/29 11:11:03;;;;;;;19.13;6.10;;;9.40;99.90;;;;;;4998125;28;20924;-71
2021/01/29 11:14:01;;;;;;;19.30;6.20;;;9.40;99.90;;;;;;4987585;28;21108;-71
2021/01/29 11:16:39;;;;;;;13.53;5.43;;;9.40;99.90;;;;;;4992447;28;20403;-71
2021/01/29 11:19:20;;;;;;;23.00;6.43;;;9.40;99.90;;;;;;4993325;28;20455;-71
2021/01/29 11:22:08;;;;;;;15.43;6.50;;;9.50;99.90;;;;;;4992650;28;20434;-71
2021/01/29 11:24:59;;;;;;;18.13;6.87;;;9.50;99.90;;;;;;4993273;28;20414;-71
2021/01/29 11:27:32;;;;;;;12.57;6.17;;;9.60;99.90;;;;;;4995616;28;20461;-71
2021/01/29 11:30:14;;;;;;;21.47;6.70;;;9.50;99.90;;;;;;4996319;28;20430;-71
2021/01/29 11:32:51;;;;;;;20.40;6.10;;;9.60;99.90;;;;;;4982495;28;20489;-72
2021/01/29 11:35:37;;;;;;;13.27;5.53;;;9.60;99.90;;;;;;4997819;28;20414;-70
2021/01/29 11:38:27;;;;;;;18.70;6.77;;;9.60;99.90;;;;;;4995421;28;20431;-71
2021/01/29 11:40:57;;;;;;;13.17;5.70;;;9.70;99.90;;;;;;4981202;28;20426;-71
2021/01/29 11:43:46;;;;;;;14.23;5.10;;;9.70;99.90;;;;;;4994658;28;20951;-71
2021/01/29 11:46:30;;;;;;;16.70;5.57;;;9.80;99.90;;;;;;4994703;28;20426;-72
2021/01/29 11:49:20;;;;;;;12.07;6.40;;;9.80;99.90;;;;;;4982435;28;20839;-71
2021/01/29 11:51:51;;;;;;;11.00;6.13;;;9.90;99.90;;;;;;4995796;28;20450;-70
2021/01/29 11:54:38;;;;;;;11.50;5.33;;;9.80;99.90;;;;;;4995496;28;20516;-70
2021/01/29 11:57:13;;;;;;;15.37;5.37;;;9.90;99.90;;;;;;4993310;28;20449;-71
2021/01/29 11:59:53;;;;;;;17.03;6.87;;;9.90;99.90;;;;;;4990177;28;20450;-71
2021/01/29 12:02:31;;;;;;;12.17;5.13;;;9.80;99.90;;;;;;4994970;28;20824;-71
2021/01/29 12:05:19;;;;;;;14.07;6.67;;;9.90;99.90;;;;;;5001811;28;20442;-71
2021/01/29 12:08:13;;;;;;;14.03;4.73;;;9.80;99.90;;;;;;4995565;28;20555;-70
2021/01/29 12:11:04;;;;;;;17.30;5.30;;;9.80;99.90;;;;;;4996100;28;20848;-71
2021/01/29 12:13:42;;;;;;;11.27;5.63;;;9.80;99.90;;;;;;4995745;28;20446;-71
2021/01/29 12:16:20;;;;;;;12.27;4.93;;;9.80;99.90;;;;;;4993767;28;20502;-71
2021/01/29 12:18:49;;;;;;;16.60;6.30;;;9.70;99.90;;;;;;4994414;28;20412;-71
2021/01/29 12:21:23;;;;;;;19.00;6.00;;;9.70;99.90;;;;;;4995968;28;20419;-71
2021/01/29 12:24:02;;;;;;;16.10;5.97;;;9.70;99.90;;;;;;4995112;28;20513;-71
2021/01/29 12:26:57;;;;;;;15.03;5.97;;;9.80;99.90;;;;;;4995231;28;20414;-71
2021/01/29 12:29:51;;;;;;;13.27;5.30;;;9.80;99.90;;;;;;4994726;28;20766;-71
2021/01/29 12:32:24;;;;;;;13.47;5.50;;;9.80;99.90;;;;;;4994785;28;20924;-71
2021/01/29 12:34:58;;;;;;;10.07;5.27;;;9.90;99.90;;;;;;4994367;28;20733;-72
2021/01/29 12:37:30;;;;;;;10.03;5.40;;;9.90;99.90;;;;;;4994003;28;20925;-72
2021/01/29 12:40:03;;;;;;;10.53;4.57;;;9.90;99.90;;;;;;4995081;28;20415;-72
2021/01/29 12:42:56;;;;;;;13.13;5.30;;;9.90;99.90;;;;;;4994953;28;20955;-72
2021/01/29 12:45:29;;;;;;;13.13;4.97;;;9.90;99.90;;;;;;4994684;28;20447;-72
2021/01/29 12:47:55;;;;;;;10.13;5.30;;;9.90;99.90;;;;;;4994936;28;20524;-71
2021/01/29 12:50:56;;;;;;;15.13;5.20;;;10.00;99.90;;;;;;4994629;28;20892;-71
2021/01/29 12:53:37;;;;;;;17.77;5.50;;;10.10;99.90;;;;;;4983778;28;20206;-72
2021/01/29 12:56:23;;;;;;;12.33;4.23;;;10.10;99.90;;;;;;4992447;28;20441;-71
2021/01/29 12:58:51;;;;;;;17.07;4.87;;;10.10;99.90;;;;;;4998890;28;20493;-71
2021/01/29 13:01:56;;;;;;;16.00;4.60;;;10.00;99.90;;;;;;4994687;28;20407;-71
2021/01/29 13:04:27;;;;;;;15.23;4.73;;;10.10;99.90;;;;;;4994852;28;20427;-71
2021/01/29 13:07:05;;;;;;;16.90;4.53;;;10.10;99.90;;;;;;4994570;28;20565;-72
2021/01/29 13:10:03;;;;;;;10.13;5.27;;;10.10;99.90;;;;;;4994316;28;20414;-71
2021/01/29 13:12:46;;;;;;;13.57;4.00;;;10.10;99.90;;;;;;4994643;28;20504;-70
2021/01/29 13:15:39;;;;;;;10.80;4.33;;;10.20;99.90;;;;;;4993867;28;20416;-72
2021/01/29 13:18:15;;;;;;;13.73;4.80;;;10.20;99.90;;;;;;4993056;28;20427;-71
2021/01/29 13:20:46;;;;;;;11.73;4.03;;;10.20;99.90;;;;;;4993933;28;21192;-72
2021/01/29 13:23:38;;;;;;;15.00;4.20;;;10.20;99.90;;;;;;4995342;28;20521;-72
2021/01/29 13:26:08;;;;;;;15.80;3.97;;;10.20;99.90;;;;;;4994109;28;20434;-72
2021/01/29 13:28:37;;;;;;;11.23;3.97;;;10.10;99.90;;;;;;4994101;28;20534;-72
2021/01/29 13:31:32;;;;;;;10.07;3.63;;;10.10;99.90;;;;;;4994557;28;20453;-72
2021/01/29 13:34:01;;;;;;;4.30;2.63;;;10.10;99.90;;;;;;4993524;28;20487;-72
2021/01/29 13:36:33;;;;;;;6.70;3.80;;;10.00;99.90;;;;;;4992067;28;20455;-71
2021/01/29 13:39:23;;;;;;;6.30;2.97;;;10.00;99.90;;;;;;4993563;28;20513;-71
2021/01/29 13:41:54;;;;;;;7.13;3.60;;;10.00;99.90;;;;;;4993449;28;20422;-71
2021/01/29 13:44:35;;;;;;;8.70;2.97;;;10.00;99.90;;;;;;4994275;28;20489;-71
2021/01/29 13:47:03;;;;;;;4.03;2.97;;;9.90;99.90;;;;;;5000792;28;20491;-71
2021/01/29 13:49:37;;;;;;;4.03;2.30;;;9.80;99.90;;;;;;5012161;28;20448;-70
2021/01/29 13:52:33;;;;;;;4.73;2.90;;;9.70;99.90;;;;;;5015056;28;20437;-71
2021/01/29 13:55:31;;;;;;;9.00;3.07;;;9.70;99.90;;;;;;4982445;28;20477;-71
2021/01/29 13:58:23;;;;;;;4.10;2.27;;;9.70;99.90;;;;;;4991470;28;20422;-71
2021/01/29 14:00:56;;;;;;;5.87;3.00;;;9.70;99.90;;;;;;4988973;28;20854;-71